Time;durP1;ratioP1;P1;durP2;ratioP2;P2;SDS_P1;SDS_P2;PMS_P1;PMS_P2;Temp;Humidity;BMP_temperature;BMP_pressure;BME280_temperature;BME280_humidity;BME280_pressure;Samples;Min_cycle;Max_cycle;Signal;HPM_P1;HPM_P2
2022/09/12 00:03:02;;;;;;;5.80;3.70;;;;;;;9.99;85.37;99826.27;130464;1265;107656;-81
2022/09/12 00:06:16;;;;;;;6.70;3.70;;;;;;;9.96;85.66;99825.13;130539;1267;107964;-82
2022/09/12 00:09:21;;;;;;;6.60;4.00;;;;;;;9.95;85.72;99820.40;130510;1267;108818;-82
2022/09/12 00:12:26;;;;;;;5.30;3.90;;;;;;;9.92;85.86;99822.33;130429;1267;108740;-82
2022/09/12 00:15:32;;;;;;;7.50;3.60;;;;;;;9.89;85.98;99822.46;130421;1267;107665;-80
2022/09/12 00:18:37;;;;;;;5.20;3.50;;;;;;;9.87;86.02;99820.75;130437;1267;108808;-80
2022/09/12 00:21:42;;;;;;;6.40;3.80;;;;;;;9.86;86.29;99819.86;130438;1267;109052;-80
2022/09/12 00:24:48;;;;;;;5.80;3.70;;;;;;;9.86;86.28;99818.16;130518;1266;108857;-82
2022/09/12 00:27:53;;;;;;;6.70;4.40;;;;;;;9.86;86.20;99815.42;130575;1267;108746;-81
2022/09/12 00:30:59;;;;;;;5.90;4.00;;;;;;;9.84;86.84;99811.48;130440;1267;108478;-80
2022/09/12 00:34:04;;;;;;;6.60;3.60;;;;;;;9.79;86.94;99810.89;130504;1267;108614;-81
2022/09/12 00:37:10;;;;;;;6.60;4.10;;;;;;;9.77;87.00;99811.58;130422;1267;108897;-81
2022/09/12 00:40:15;;;;;;;9.90;4.70;;;;;;;9.75;87.05;99808.98;130431;1267;108837;-81
2022/09/12 00:47:00;;;;;;;8.50;4.20;;;;;;;9.75;86.40;99811.30;125897;1310;636016;-80
2022/09/12 00:50:12;;;;;;;4.80;3.50;;;;;;;9.71;87.44;99816.52;129221;1280;108771;-81
2022/09/12 00:53:18;;;;;;;11.20;4.20;;;;;;;9.70;87.37;99820.41;129319;1281;107449;-81
2022/09/12 00:56:24;;;;;;;6.60;3.70;;;;;;;9.70;86.89;99822.49;129231;1281;108809;-81
2022/09/12 00:59:37;;;;;;;7.90;4.20;;;;;;;9.71;86.92;99819.14;128032;1281;1576061;-81
2022/09/12 01:02:46;;;;;;;5.80;3.60;;;;;;;9.67;86.35;99821.39;129219;1280;109218;-81
2022/09/12 01:06:00;;;;;;;8.70;4.00;;;;;;;9.64;87.21;99826.52;129409;1277;107802;-81
2022/09/12 01:09:07;;;;;;;7.10;4.20;;;;;;;9.57;87.81;99822.23;129281;1279;108820;-81
2022/09/12 01:12:13;;;;;;;6.40;4.50;;;;;;;9.57;87.23;99828.11;129488;1277;108810;-80
2022/09/12 01:15:19;;;;;;;6.10;4.20;;;;;;;9.55;87.60;99826.81;129456;1277;108687;-81
2022/09/12 01:18:36;;;;;;;6.80;4.00;;;;;;;9.53;87.20;99822.84;130032;1271;108645;-81
2022/09/12 01:21:53;;;;;;;6.50;3.60;;;;;;;9.49;87.24;99826.57;130281;1269;108746;-81
2022/09/12 01:25:15;;;;;;;6.20;4.00;;;;;;;9.47;87.97;99822.92;130218;1271;108684;-81
2022/09/12 01:28:40;;;;;;;6.30;4.00;;;;;;;9.46;87.20;99827.48;130114;1271;107883;-81
2022/09/12 01:31:54;;;;;;;6.90;4.70;;;;;;;9.44;87.14;99829.70;130226;1271;108812;-80
2022/09/12 01:35:15;;;;;;;7.80;3.80;;;;;;;9.43;87.27;99830.56;130194;1271;108586;-80
2022/09/12 01:38:28;;;;;;;8.30;3.80;;;;;;;9.38;87.55;99831.00;130308;1271;108763;-81
2022/09/12 01:41:48;;;;;;;8.00;4.30;;;;;;;9.37;88.22;99830.45;130231;1270;107464;-81
2022/09/12 01:44:59;;;;;;;8.30;4.00;;;;;;;9.38;87.93;99833.23;130279;1271;107660;-82
2022/09/12 01:48:15;;;;;;;8.00;4.40;;;;;;;9.40;88.11;99835.77;130226;1270;109003;-80
2022/09/12 01:51:27;;;;;;;8.60;4.50;;;;;;;9.36;88.07;99838.84;130281;1269;108838;-79
2022/09/12 01:54:38;;;;;;;5.50;3.80;;;;;;;9.31;88.37;99842.13;130189;1271;108791;-82
2022/09/12 01:57:49;;;;;;;5.90;3.60;;;;;;;9.28;87.82;99844.70;130181;1271;108926;-82
2022/09/12 02:01:00;;;;;;;6.50;3.90;;;;;;;9.29;87.90;99847.40;130184;1271;108426;-78
2022/09/12 02:04:11;;;;;;;7.30;4.50;;;;;;;9.29;87.78;99845.07;130097;1271;108746;-78
2022/09/12 02:07:20;;;;;;;6.70;4.60;;;;;;;9.26;88.47;99846.15;130265;1271;109626;-75
2022/09/12 02:10:30;;;;;;;7.10;3.90;;;;;;;9.20;88.76;99847.92;130089;1271;107157;-76
2022/09/12 02:13:39;;;;;;;6.00;3.80;;;;;;;9.17;88.26;99845.11;129975;1270;108706;-78
2022/09/12 02:16:49;;;;;;;6.50;4.00;;;;;;;9.17;88.44;99843.71;130140;1271;107758;-77
2022/09/12 02:19:58;;;;;;;7.10;4.10;;;;;;;9.16;88.02;99845.70;130207;1270;108847;-77
2022/09/12 02:23:09;;;;;;;6.20;4.40;;;;;;;9.18;88.08;99847.81;130168;1271;108835;-75
2022/09/12 02:26:23;;;;;;;6.60;3.90;;;;;;;9.15;88.32;99848.09;130230;1269;108579;-77
2022/09/12 02:29:31;;;;;;;5.60;3.90;;;;;;;9.13;88.07;99851.73;130372;1270;108737;-77
2022/09/12 02:32:43;;;;;;;5.20;3.60;;;;;;;9.12;87.98;99853.08;130254;1271;108683;-76
2022/09/12 02:35:51;;;;;;;8.20;4.30;;;;;;;9.12;88.00;99849.69;130041;1271;108594;-75
2022/09/12 02:38:57;;;;;;;9.10;4.80;;;;;;;9.11;88.95;99844.63;130069;1270;108682;-75
2022/09/12 02:42:04;;;;;;;7.00;3.90;;;;;;;9.09;89.17;99846.77;130144;1270;107675;-74
2022/09/12 02:45:12;;;;;;;9.10;4.10;;;;;;;9.05;88.67;99845.58;129999;1270;108805;-74
2022/09/12 02:48:23;;;;;;;6.10;3.40;;;;;;;9.05;88.94;99842.58;130019;1270;108642;-76
2022/09/12 02:51:28;;;;;;;6.10;4.00;;;;;;;9.05;88.61;99845.02;130036;1270;108677;-79
2022/09/12 02:54:34;;;;;;;7.70;3.80;;;;;;;9.09;88.66;99844.45;130118;1270;108949;-75
2022/09/12 02:57:40;;;;;;;6.00;4.30;;;;;;;9.14;89.03;99847.31;130035;1271;108782;-76
2022/09/12 03:00:54;;;;;;;7.40;4.60;;;;;;;9.14;89.37;99851.91;130107;1271;108876;-76
2022/09/12 03:04:16;;;;;;;6.00;3.80;;;;;;;9.12;89.48;99850.75;130110;1271;108778;-76
2022/09/12 03:07:36;;;;;;;6.80;3.60;;;;;;;9.16;89.58;99852.84;130080;1271;107739;-76
2022/09/12 03:10:53;;;;;;;6.70;3.80;;;;;;;9.20;89.54;99859.11;130210;1270;108737;-76
2022/09/12 03:14:12;;;;;;;5.60;4.10;;;;;;;9.28;89.18;99859.73;130163;1271;108683;-76
2022/09/12 03:17:27;;;;;;;7.00;4.50;;;;;;;9.34;89.40;99862.34;130070;1271;108875;-76
2022/09/12 03:20:44;;;;;;;5.70;4.20;;;;;;;9.34;90.13;99862.95;130075;1270;109223;-76
2022/09/12 03:24:01;;;;;;;6.10;3.60;;;;;;;9.28;89.96;99864.54;130050;1270;108827;-76
2022/09/12 03:27:13;;;;;;;7.80;4.20;;;;;;;9.24;90.97;99866.36;130231;1271;108829;-76
2022/09/12 03:30:18;;;;;;;5.90;4.60;;;;;;;9.21;90.36;99867.60;130200;1271;108741;-77
2022/09/12 03:33:25;;;;;;;7.80;4.50;;;;;;;9.19;90.08;99872.20;130091;1271;108749;-76
2022/09/12 03:36:31;;;;;;;9.30;4.50;;;;;;;9.16;90.99;99871.98;130148;1271;108748;-76
2022/09/12 03:39:37;;;;;;;6.20;3.60;;;;;;;9.10;91.11;99875.77;130011;1271;108787;-75
2022/09/12 03:42:42;;;;;;;6.10;4.50;;;;;;;9.10;90.55;99881.84;130080;1271;108736;-76
2022/09/12 03:45:52;;;;;;;6.80;4.10;;;;;;;9.16;91.36;99883.73;130012;1271;108945;-76
2022/09/12 03:48:57;;;;;;;6.70;4.40;;;;;;;9.20;91.52;99883.96;130090;1271;109752;-76
2022/09/12 03:52:03;;;;;;;10.50;4.60;;;;;;;9.21;92.21;99881.62;130109;1270;108643;-76
2022/09/12 03:55:09;;;;;;;6.10;3.40;;;;;;;9.21;91.63;99888.66;130129;1271;108649;-76
2022/09/12 03:58:15;;;;;;;7.20;4.50;;;;;;;9.24;91.24;99887.50;130240;1271;108608;-76
2022/09/12 04:01:21;;;;;;;5.50;4.10;;;;;;;9.25;91.67;99890.26;130162;1270;108759;-76
2022/09/12 04:04:27;;;;;;;6.50;4.20;;;;;;;9.28;91.20;99888.55;130225;1271;108593;-75
2022/09/12 04:07:32;;;;;;;6.50;3.90;;;;;;;9.27;91.51;99888.30;130123;1269;107596;-76
2022/09/12 04:10:38;;;;;;;7.20;3.70;;;;;;;9.28;91.62;99891.23;130163;1270;108945;-76
2022/09/12 04:13:45;;;;;;;7.50;4.60;;;;;;;9.25;92.09;99897.52;130191;1271;108813;-76
2022/09/12 04:16:50;;;;;;;7.30;4.40;;;;;;;9.23;91.77;99894.70;130094;1271;108713;-76
2022/09/12 04:19:56;;;;;;;7.90;4.20;;;;;;;9.25;91.73;99900.55;130080;1271;108866;-74
2022/09/12 04:23:01;;;;;;;7.00;3.80;;;;;;;9.22;92.00;99899.85;130119;1270;108751;-74
2022/09/12 04:26:08;;;;;;;8.60;3.90;;;;;;;9.21;92.11;99899.15;130063;1270;108705;-76
2022/09/12 04:29:14;;;;;;;5.50;4.30;;;;;;;9.22;92.06;99898.02;129935;1270;108850;-75
2022/09/12 04:32:21;;;;;;;5.40;4.10;;;;;;;9.25;92.41;99904.94;129979;1271;108603;-75
2022/09/12 04:35:26;;;;;;;9.40;4.40;;;;;;;9.28;92.21;99902.58;130026;1270;108564;-75
2022/09/12 04:38:32;;;;;;;7.70;3.70;;;;;;;9.27;92.08;99905.48;130198;1270;108550;-74
2022/09/12 04:41:39;;;;;;;6.50;3.60;;;;;;;9.28;91.86;99905.16;130171;1271;108861;-74
2022/09/12 04:44:45;;;;;;;7.10;4.40;;;;;;;9.30;91.87;99903.72;130384;1271;108684;-74
2022/09/12 04:47:55;;;;;;;6.30;4.20;;;;;;;9.32;92.33;99906.78;130186;1270;108708;-76
2022/09/12 04:51:11;;;;;;;6.10;4.30;;;;;;;9.32;91.56;99900.88;130130;1271;109031;-74
2022/09/12 04:54:18;;;;;;;6.40;3.80;;;;;;;9.35;92.33;99906.07;130239;1271;108784;-73
2022/09/12 04:57:24;;;;;;;5.40;3.80;;;;;;;9.39;91.76;99906.45;129621;1270;108754;-70
2022/09/12 05:00:30;;;;;;;6.30;4.00;;;;;;;9.46;92.24;99912.86;129785;1270;108648;-71
2022/09/12 05:03:37;;;;;;;7.30;4.00;;;;;;;9.51;92.51;99909.31;129891;1271;109579;-70
2022/09/12 05:06:46;;;;;;;6.20;4.40;;;;;;;9.56;91.78;99916.21;129986;1271;108840;-71
2022/09/12 05:09:51;;;;;;;7.40;4.20;;;;;;;9.61;91.85;99918.05;130041;1271;109695;-71
2022/09/12 05:12:56;;;;;;;6.40;3.60;;;;;;;9.65;92.20;99917.98;130343;1271;108819;-75
2022/09/12 05:16:04;;;;;;;7.60;4.50;;;;;;;9.73;92.19;99923.39;130272;1271;108824;-69
2022/09/12 05:19:12;;;;;;;8.30;4.60;;;;;;;9.78;91.78;99923.77;130154;1269;109183;-69
2022/09/12 05:22:19;;;;;;;6.60;4.30;;;;;;;9.86;91.67;99926.08;130060;1270;108708;-74
2022/09/12 05:25:24;;;;;;;9.00;4.70;;;;;;;9.94;91.83;99928.03;130157;1271;108714;-71
2022/09/12 05:28:34;;;;;;;6.60;4.30;;;;;;;9.95;92.04;99925.61;130014;1270;108991;-71
2022/09/12 05:31:39;;;;;;;9.70;4.80;;;;;;;9.99;91.75;99928.20;130303;1271;108869;-71
2022/09/12 05:34:45;;;;;;;9.20;5.00;;;;;;;10.04;91.62;99928.29;130173;1271;107445;-72
2022/09/12 05:37:50;;;;;;;7.90;4.60;;;;;;;10.15;91.69;99928.91;130015;1271;109553;-71
2022/09/12 05:41:02;;;;;;;8.20;4.20;;;;;;;10.20;91.60;99928.52;130090;1271;108711;-71
2022/09/12 05:44:12;;;;;;;6.90;4.00;;;;;;;10.28;91.38;99927.26;130173;1271;108523;-71
2022/09/12 05:47:18;;;;;;;7.40;4.50;;;;;;;10.33;91.22;99923.71;130147;1271;108803;-71
2022/09/12 05:50:24;;;;;;;8.00;4.40;;;;;;;10.34;91.25;99925.02;130132;1270;108858;-71
2022/09/12 05:53:30;;;;;;;7.60;4.70;;;;;;;10.37;91.21;99921.36;130111;1271;107317;-70
2022/09/12 05:56:40;;;;;;;6.10;4.30;;;;;;;10.32;91.38;99928.75;130095;1271;107761;-71
2022/09/12 05:59:45;;;;;;;6.10;3.70;;;;;;;10.33;91.19;99930.27;130053;1269;108686;-69
2022/09/12 06:02:54;;;;;;;5.70;4.20;;;;;;;10.39;91.52;99929.77;130011;1270;108770;-70
2022/09/12 06:06:03;;;;;;;6.90;4.40;;;;;;;10.42;91.33;99930.44;130071;1270;107708;-70
2022/09/12 06:09:09;;;;;;;7.80;4.40;;;;;;;10.46;91.38;99928.43;130123;1271;108624;-70
2022/09/12 06:12:15;;;;;;;7.40;4.40;;;;;;;10.50;91.09;99927.85;129926;1270;108971;-70
2022/09/12 06:15:20;;;;;;;5.20;3.70;;;;;;;10.57;90.82;99925.81;130007;1271;108941;-71
2022/09/12 06:18:26;;;;;;;8.70;4.00;;;;;;;10.70;91.03;99924.40;129980;1271;108132;-71
2022/09/12 06:21:34;;;;;;;7.70;4.00;;;;;;;10.87;90.71;99924.77;130113;1270;108787;-70
2022/09/12 06:24:39;;;;;;;5.50;3.90;;;;;;;11.02;90.29;99927.36;130097;1271;108842;-71
2022/09/12 06:27:46;;;;;;;6.20;3.90;;;;;;;11.13;90.05;99929.15;130011;1271;110468;-71
2022/09/12 06:30:51;;;;;;;6.90;3.60;;;;;;;11.26;89.98;99927.60;130011;1271;108741;-71
2022/09/12 06:34:00;;;;;;;5.10;3.50;;;;;;;11.44;89.68;99933.81;129979;1269;108280;-70
2022/09/12 06:37:05;;;;;;;7.20;3.80;;;;;;;11.55;89.32;99935.66;129962;1271;108578;-70
2022/09/12 06:40:12;;;;;;;7.40;4.30;;;;;;;11.69;89.15;99935.95;129982;1271;109674;-70
2022/09/12 06:43:18;;;;;;;5.80;3.70;;;;;;;11.82;88.55;99937.30;129948;1270;109112;-69
2022/09/12 06:46:24;;;;;;;5.90;3.50;;;;;;;11.87;88.42;99940.16;129955;1271;107547;-70
2022/09/12 06:49:29;;;;;;;4.70;3.70;;;;;;;11.88;88.36;99939.95;130002;1271;109311;-70
2022/09/12 06:52:35;;;;;;;5.20;3.50;;;;;;;11.99;88.88;99941.11;130016;1271;108825;-71
2022/09/12 06:55:40;;;;;;;6.00;3.60;;;;;;;12.06;87.93;99944.05;129993;1271;108611;-70
2022/09/12 06:58:46;;;;;;;7.70;3.90;;;;;;;12.06;87.99;99945.64;130071;1271;109575;-70
2022/09/12 07:01:52;;;;;;;5.30;3.70;;;;;;;11.95;87.62;99950.16;129952;1270;107981;-70
2022/09/12 07:04:57;;;;;;;5.10;3.40;;;;;;;12.01;88.31;99954.86;130008;1271;108740;-70
2022/09/12 07:08:02;;;;;;;4.90;3.60;;;;;;;12.20;88.11;99957.46;130006;1271;109542;-70
2022/09/12 07:11:14;;;;;;;7.00;3.40;;;;;;;12.27;87.60;99957.21;129961;1271;108738;-70
2022/09/12 07:14:19;;;;;;;6.70;3.70;;;;;;;12.32;87.90;99956.05;129970;1271;107778;-70
2022/09/12 07:17:24;;;;;;;6.30;3.40;;;;;;;12.40;87.46;99958.92;130029;1271;109004;-70
2022/09/12 07:20:31;;;;;;;4.60;3.20;;;;;;;12.52;87.23;99962.89;129935;1271;108503;-70
2022/09/12 07:23:38;;;;;;;4.70;3.00;;;;;;;12.64;87.12;99961.27;130042;1271;108599;-71
2022/09/12 07:26:44;;;;;;;4.60;3.00;;;;;;;12.77;86.71;99960.31;130131;1271;108639;-70
2022/09/12 07:29:49;;;;;;;3.60;3.00;;;;;;;12.84;86.01;99959.54;130120;1271;108073;-70
2022/09/12 07:32:55;;;;;;;4.90;3.00;;;;;;;12.88;86.16;99961.85;130127;1271;109509;-70
2022/09/12 07:36:04;;;;;;;5.50;3.10;;;;;;;12.93;85.81;99963.88;130038;1271;108697;-71
2022/09/12 07:39:11;;;;;;;4.80;3.00;;;;;;;13.05;86.10;99965.95;130142;1271;108704;-73
2022/09/12 07:42:16;;;;;;;4.30;2.80;;;;;;;13.12;85.26;99969.73;130201;1271;108722;-70
2022/09/12 07:45:22;;;;;;;4.10;2.90;;;;;;;13.14;85.12;99974.48;130112;1271;108647;-72
2022/09/12 07:48:27;;;;;;;4.10;2.90;;;;;;;13.19;84.98;99972.50;130191;1270;108739;-73
2022/09/12 07:51:33;;;;;;;3.90;2.50;;;;;;;13.23;84.87;99973.58;130159;1271;108961;-69
2022/09/12 07:54:38;;;;;;;7.00;2.50;;;;;;;13.36;85.31;99975.45;130219;1270;108631;-70
2022/09/12 07:57:43;;;;;;;4.40;2.60;;;;;;;13.46;85.45;99977.60;130168;1271;108428;-72
2022/09/12 08:00:49;;;;;;;3.60;2.70;;;;;;;13.53;84.78;99976.48;130166;1271;109672;-71
2022/09/12 08:03:57;;;;;;;4.80;2.70;;;;;;;13.58;84.46;99978.23;130129;1271;108736;-72
2022/09/12 08:07:03;;;;;;;3.40;2.60;;;;;;;13.62;84.04;99977.31;130086;1271;108738;-70
2022/09/12 08:10:10;;;;;;;5.60;2.70;;;;;;;13.70;83.63;99983.05;130158;1271;108762;-71
2022/09/12 08:13:15;;;;;;;4.70;2.30;;;;;;;13.78;83.69;99979.64;130194;1271;108688;-70
2022/09/12 08:16:23;;;;;;;3.30;2.30;;;;;;;13.95;84.22;99976.10;130142;1271;107662;-72
2022/09/12 08:19:28;;;;;;;4.00;2.40;;;;;;;14.17;83.37;99984.34;130197;1271;108674;-72
2022/09/12 08:22:33;;;;;;;3.90;2.60;;;;;;;14.24;82.40;99980.38;130126;1271;107646;-71
2022/09/12 08:25:40;;;;;;;5.00;2.40;;;;;;;14.36;82.34;99986.19;130233;1271;108741;-71
2022/09/12 08:28:46;;;;;;;3.60;2.20;;;;;;;14.40;81.35;99983.36;130151;1271;108992;-70
2022/09/12 08:31:52;;;;;;;4.00;2.40;;;;;;;14.47;80.60;99983.60;130129;1271;108697;-70
2022/09/12 08:34:57;;;;;;;4.10;2.70;;;;;;;14.53;80.00;99983.23;130089;1271;108668;-71
2022/09/12 08:38:02;;;;;;;4.90;2.50;;;;;;;14.66;79.47;99981.61;130079;1271;108780;-71
2022/09/12 08:41:20;;;;;;;5.30;2.40;;;;;;;14.82;80.25;99978.98;130101;1271;108770;-72
2022/09/12 08:44:39;;;;;;;4.20;2.00;;;;;;;14.96;79.03;99979.49;130176;1271;108771;-71
2022/09/12 08:47:47;;;;;;;3.80;1.90;;;;;;;15.19;79.76;99975.17;130209;1270;108715;-73
2022/09/12 08:50:52;;;;;;;5.30;2.20;;;;;;;15.29;77.38;99973.52;130010;1271;108703;-70
2022/09/12 08:53:59;;;;;;;2.90;2.10;;;;;;;15.27;76.77;99978.48;130177;1271;108689;-70
2022/09/12 08:57:09;;;;;;;4.70;2.70;;;;;;;15.25;75.05;99979.91;130186;1271;108713;-73
2022/09/12 09:00:18;;;;;;;3.10;2.00;;;;;;;15.24;76.18;99977.63;130235;1271;108760;-72
2022/09/12 09:03:53;;;;;;;4.20;2.00;;;;;;;15.26;77.64;99978.48;130156;1271;107815;-72
2022/09/12 09:07:29;;;;;;;3.70;2.10;;;;;;;15.20;77.08;99981.46;129966;1271;107714;-71
2022/09/12 09:10:47;;;;;;;3.70;1.80;;;;;;;15.24;77.44;99982.80;130092;1270;108933;-73
2022/09/12 09:17:32;;;;;;;2.70;1.90;;;;;;;15.47;74.70;99983.16;130284;1271;107796;-71
2022/09/12 09:20:45;;;;;;;4.20;2.40;;;;;;;15.59;74.20;99982.56;130225;1271;107457;-71
2022/09/12 09:23:56;;;;;;;4.00;2.30;;;;;;;15.61;72.77;99988.11;130276;1271;108675;-71
2022/09/12 09:27:06;;;;;;;2.40;2.10;;;;;;;15.53;72.16;99986.08;130181;1271;108571;-71
2022/09/12 09:30:16;;;;;;;3.30;2.10;;;;;;;15.42;73.53;99992.83;130264;1271;108679;-71
2022/09/12 09:33:26;;;;;;;5.40;2.60;;;;;;;15.28;73.96;99995.21;130116;1271;107339;-72
2022/09/12 09:36:42;;;;;;;4.50;2.30;;;;;;;15.14;73.51;100000.52;130194;1271;108792;-71
2022/09/12 09:39:58;;;;;;;3.40;2.20;;;;;;;15.12;74.12;99999.33;130242;1271;108683;-70
2022/09/12 09:43:12;;;;;;;4.00;2.50;;;;;;;15.26;74.63;99996.35;130235;1271;108829;-70
2022/09/12 09:46:18;;;;;;;3.20;2.10;;;;;;;15.35;72.51;100001.06;130124;1271;108505;-70
2022/09/12 09:49:25;;;;;;;2.70;2.20;;;;;;;15.27;72.64;100001.73;130127;1271;107681;-73
2022/09/12 09:52:32;;;;;;;3.00;2.00;;;;;;;15.17;71.87;100004.83;130102;1271;108184;-72
2022/09/12 09:55:42;;;;;;;3.20;2.40;;;;;;;15.17;73.89;100004.14;130197;1271;108636;-72
2022/09/12 09:58:47;;;;;;;3.50;2.30;;;;;;;15.25;73.08;100003.12;130052;1271;108531;-72
2022/09/12 10:01:56;;;;;;;4.10;2.40;;;;;;;15.33;71.70;100004.52;130177;1271;108747;-72
2022/09/12 10:05:01;;;;;;;3.40;2.40;;;;;;;15.29;72.39;100004.73;130152;1271;108762;-72
2022/09/12 10:08:09;;;;;;;3.60;2.30;;;;;;;15.23;72.40;100003.58;130158;1271;108817;-72
2022/09/12 10:11:25;;;;;;;5.20;2.70;;;;;;;15.14;72.46;100010.58;130020;1271;108648;-71
2022/09/12 10:14:35;;;;;;;6.60;5.00;;;;;;;15.22;74.16;100013.20;129998;1270;108681;-71
2022/09/12 10:17:45;;;;;;;4.50;2.80;;;;;;;15.38;73.49;100014.26;129979;1268;108506;-72
2022/09/12 10:20:51;;;;;;;3.70;3.00;;;;;;;15.40;72.14;100012.90;130032;1271;108793;-72
2022/09/12 10:24:03;;;;;;;3.30;2.80;;;;;;;15.39;72.86;100014.10;130177;1271;107615;-72
2022/09/12 10:27:16;;;;;;;3.70;3.10;;;;;;;15.42;72.12;100010.20;130211;1271;108724;-71
2022/09/12 10:30:24;;;;;;;4.20;2.60;;;;;;;15.43;70.88;100011.24;129798;1271;108586;-72
2022/09/12 10:33:34;;;;;;;3.70;2.30;;;;;;;15.45;72.18;100012.51;130157;1271;109919;-70
2022/09/12 10:36:40;;;;;;;3.60;2.80;;;;;;;15.46;72.42;100015.17;130022;1271;109267;-71
2022/09/12 10:39:54;;;;;;;2.50;2.30;;;;;;;15.44;71.56;100018.91;130085;1271;108690;-71
2022/09/12 10:43:01;;;;;;;4.40;2.40;;;;;;;15.38;71.18;100018.23;130005;1271;107572;-72
2022/09/12 10:46:31;;;;;;;2.90;2.50;;;;;;;15.46;70.99;100019.68;130106;1271;108736;-72
2022/09/12 10:49:38;;;;;;;4.70;2.50;;;;;;;15.54;71.02;100017.20;130215;1271;108620;-70
2022/09/12 10:52:45;;;;;;;5.30;2.60;;;;;;;15.69;70.15;100013.95;130164;1271;109597;-70
2022/09/12 10:56:02;;;;;;;6.20;3.40;;;;;;;15.86;71.67;100016.13;129991;1271;109055;-70
2022/09/12 10:59:18;;;;;;;2.60;2.30;;;;;;;16.05;70.29;100016.24;129856;1271;109411;-71
2022/09/12 11:02:29;;;;;;;3.70;2.50;;;;;;;16.15;70.04;100018.30;130003;1271;108592;-70
2022/09/12 11:05:45;;;;;;;3.10;2.40;;;;;;;16.23;70.22;100014.76;129816;1271;108792;-70
2022/09/12 11:09:06;;;;;;;4.10;2.60;;;;;;;16.37;69.82;100017.80;130123;1270;108624;-70
2022/09/12 11:12:20;;;;;;;5.20;2.50;;;;;;;16.48;69.27;100015.05;130040;1271;108880;-69
2022/09/12 11:15:41;;;;;;;3.60;2.30;;;;;;;16.53;67.74;100020.02;130118;1271;108175;-70
2022/09/12 11:19:20;;;;;;;4.30;2.30;;;;;;;16.63;68.48;100020.41;130132;1271;108626;-71
2022/09/12 11:22:40;;;;;;;5.10;4.00;;;;;;;16.65;65.95;100021.88;130005;1271;109665;-70
2022/09/12 11:25:55;;;;;;;4.50;3.60;;;;;;;16.68;66.82;100020.56;130053;1271;108615;-69
2022/09/12 11:29:12;;;;;;;3.00;2.70;;;;;;;16.92;68.20;100021.34;130003;1271;108752;-73
2022/09/12 11:32:40;;;;;;;2.90;2.60;;;;;;;17.21;68.13;100014.27;130073;1271;108811;-71
2022/09/12 11:35:50;;;;;;;3.30;2.00;;;;;;;17.40;67.65;100008.23;129946;1270;108590;-71
2022/09/12 11:39:08;;;;;;;2.70;2.30;;;;;;;17.47;66.91;100009.29;130069;1271;108038;-71
2022/09/12 11:42:22;;;;;;;3.00;2.30;;;;;;;17.46;67.75;100013.97;130037;1271;108507;-73
2022/09/12 11:45:33;;;;;;;7.20;4.20;;;;;;;17.47;65.94;100017.36;130102;1271;109208;-74
2022/09/12 11:48:45;;;;;;;4.10;2.70;;;;;;;17.43;67.49;100016.92;130255;1271;108645;-72
2022/09/12 11:51:56;;;;;;;3.80;2.10;;;;;;;17.41;64.66;100019.73;130231;1267;107709;-72
2022/09/12 11:55:05;;;;;;;3.00;2.30;;;;;;;17.29;64.00;100023.85;130328;1270;108541;-72
2022/09/12 11:58:13;;;;;;;2.10;1.60;;;;;;;17.21;63.73;100018.59;130121;1270;107729;-70
2022/09/12 12:01:21;;;;;;;2.40;1.70;;;;;;;17.14;63.90;100022.80;130188;1268;108667;-70
2022/09/12 12:04:35;;;;;;;1.70;1.50;;;;;;;17.03;64.48;100024.25;130176;1268;109447;-70
2022/09/12 12:07:48;;;;;;;4.10;2.70;;;;;;;16.98;64.89;100028.58;130212;1268;110202;-70
2022/09/12 12:10:56;;;;;;;3.30;2.00;;;;;;;16.95;64.17;100032.50;130193;1268;109662;-72
2022/09/12 12:14:05;;;;;;;4.10;2.30;;;;;;;16.91;64.53;100029.16;130260;1268;109484;-71
2022/09/12 12:17:17;;;;;;;2.70;2.00;;;;;;;16.89;65.01;100027.29;130209;1268;108733;-71
2022/09/12 12:20:24;;;;;;;3.40;2.40;;;;;;;16.83;65.76;100029.04;130234;1268;109575;-70
2022/09/12 12:23:32;;;;;;;2.80;2.20;;;;;;;16.72;64.99;100029.95;130244;1268;108816;-70
2022/09/12 12:26:58;;;;;;;2.80;2.20;;;;;;;16.65;64.82;100031.41;130231;1268;108600;-71
2022/09/12 12:30:24;;;;;;;4.40;2.80;;;;;;;16.71;65.85;100030.15;130012;1271;108722;-70
2022/09/12 12:34:04;;;;;;;2.80;2.30;;;;;;;16.88;66.28;100026.09;130175;1268;108781;-71
2022/09/12 12:37:36;;;;;;;7.70;6.80;;;;;;;17.12;66.07;100025.52;130223;1268;108586;-71
2022/09/12 12:40:42;;;;;;;5.90;4.00;;;;;;;17.40;65.62;100026.65;130219;1268;108736;-72
2022/09/12 12:43:48;;;;;;;4.40;2.70;;;;;;;17.57;66.22;100028.35;130301;1267;109069;-73
2022/09/12 12:47:15;;;;;;;4.20;2.50;;;;;;;17.70;64.15;100029.26;130160;1268;107606;-73
2022/09/12 12:50:26;;;;;;;3.80;2.90;;;;;;;17.73;64.63;100021.74;130160;1270;108714;-72
2022/09/12 12:53:35;;;;;;;4.50;3.00;;;;;;;17.73;61.01;100023.65;130311;1268;108782;-71
2022/09/12 12:56:43;;;;;;;10.10;7.20;;;;;;;17.72;62.02;100023.56;130332;1268;108669;-73
2022/09/12 12:59:51;;;;;;;5.10;3.50;;;;;;;17.72;63.30;100025.02;128946;1270;1618421;-72
2022/09/12 13:03:00;;;;;;;4.40;3.00;;;;;;;17.63;62.58;100026.66;130329;1268;109586;-69
2022/09/12 13:06:09;;;;;;;1.90;1.60;;;;;;;17.46;61.10;100028.50;130015;1267;108729;-72
2022/09/12 13:09:26;;;;;;;2.10;1.90;;;;;;;17.22;62.29;100027.94;130234;1268;108997;-73
2022/09/12 13:12:35;;;;;;;2.40;1.90;;;;;;;17.05;62.95;100034.66;130253;1268;108520;-69
2022/09/12 13:15:52;;;;;;;4.60;2.20;;;;;;;16.89;62.74;100031.94;130222;1268;109024;-72
2022/09/12 13:19:02;;;;;;;2.10;1.80;;;;;;;16.91;62.21;100032.44;130112;1268;108616;-70
2022/09/12 13:22:09;;;;;;;2.60;1.90;;;;;;;16.99;62.73;100030.16;130330;1268;108737;-75
2022/09/12 13:25:25;;;;;;;3.60;2.70;;;;;;;17.11;61.90;100023.48;130247;1268;108877;-74
2022/09/12 13:28:31;;;;;;;4.70;2.20;;;;;;;17.07;61.49;100023.82;130263;1268;109161;-71
2022/09/12 13:31:37;;;;;;;5.90;3.90;;;;;;;16.99;61.96;100021.45;130286;1268;108690;-70
2022/09/12 13:34:57;;;;;;;4.00;2.60;;;;;;;16.96;61.43;100025.99;130250;1268;107946;-71
2022/09/12 13:38:12;;;;;;;2.70;2.20;;;;;;;16.99;62.05;100027.09;130120;1268;108818;-71
2022/09/12 13:41:32;;;;;;;2.10;1.60;;;;;;;17.07;63.01;100022.39;129989;1268;108769;-71
2022/09/12 13:44:43;;;;;;;1.90;1.50;;;;;;;17.12;63.10;100024.32;130105;1268;108769;-72
2022/09/12 13:47:51;;;;;;;2.50;1.40;;;;;;;17.19;62.55;100026.80;130329;1268;108597;-73
2022/09/12 13:51:00;;;;;;;1.30;1.20;;;;;;;17.14;62.85;100022.75;130253;1268;108735;-72
2022/09/12 13:54:06;;;;;;;2.10;1.50;;;;;;;17.12;62.15;100024.25;130242;1268;108761;-71
2022/09/12 13:57:29;;;;;;;2.10;1.30;;;;;;;17.22;63.20;100019.42;130269;1268;107999;-71
2022/09/12 14:00:36;;;;;;;1.70;1.10;;;;;;;17.33;62.26;100024.27;130317;1268;109497;-81
2022/09/12 14:07:17;;;;;;;2.30;1.30;;;;;;;17.42;61.98;100020.64;130312;1268;108687;-78
2022/09/12 14:10:29;;;;;;;2.50;1.40;;;;;;;17.39;62.41;100020.51;130224;1268;108655;-76
2022/09/12 14:13:34;;;;;;;2.40;1.80;;;;;;;17.29;61.18;100026.95;130242;1268;108569;-76
2022/09/12 14:16:41;;;;;;;2.10;1.20;;;;;;;17.08;61.55;100027.63;130196;1268;108715;-79
2022/09/12 14:19:48;;;;;;;4.30;2.10;;;;;;;16.90;61.08;100024.14;130503;1268;108704;-78
2022/09/12 14:22:54;;;;;;;6.80;4.20;;;;;;;16.76;61.16;100022.11;130318;1268;108533;-78
2022/09/12 14:26:03;;;;;;;1.60;1.30;;;;;;;16.75;61.34;100022.83;130267;1268;108796;-76
2022/09/12 14:29:12;;;;;;;1.80;1.20;;;;;;;16.73;60.88;100024.89;130289;1268;108597;-81
2022/09/12 14:32:24;;;;;;;1.40;0.80;;;;;;;16.67;61.20;100026.89;130405;1267;108757;-79
2022/09/12 14:35:31;;;;;;;1.70;0.90;;;;;;;16.68;61.60;100032.28;130292;1267;108758;-77
2022/09/12 14:38:41;;;;;;;3.00;1.90;;;;;;;16.69;61.98;100033.61;130307;1268;108703;-78
2022/09/12 14:41:46;;;;;;;1.80;1.60;;;;;;;16.72;61.97;100033.63;130222;1268;108977;-78
2022/09/12 14:44:56;;;;;;;2.70;1.40;;;;;;;16.72;61.96;100033.94;130233;1267;108685;-76